KLM777 EDDM-EDDF
Flight info
| Callsign | KLM777 |
|---|---|
| Flight time | N/A |
| Altitude | 24000 |
| Route | GIVMI6S GIVMI Y101 ERNAS T161 DEBHI DEBHI1B |
| Aircraft | A359/H-SDE2E3GHIJ3J4J5LM1ORWXY/LB1D1 |
Departure
| Time | 2026-05-05 09:51 |
|---|---|
| Airport | Munich Airport (EDDM) |
Arrival
| Time | N/A |
|---|---|
| Airport | Frankfurt Main Airport (EDDF) |
| Time | Latitude | Longitude | Altitude | Speed | Heading |
|---|---|---|---|---|---|
| 2026-05-05 08:59 | 48.35739 | 11.77629 | 1473 ft | 0 kts | 263° |
| 2026-05-05 09:36 | 48.35738 | 11.77617 | 1472 ft | 0 kts | 263° |
| 2026-05-05 09:37 | 48.35739 | 11.77635 | 1472 ft | 2 kts | 263° |
| 2026-05-05 09:37 | 48.35741 | 11.77659 | 1460 ft | 2 kts | 263° |
| 2026-05-05 09:37 | 48.35742 | 11.77684 | 1461 ft | 3 kts | 274° |
| 2026-05-05 09:37 | 48.35739 | 11.77711 | 1467 ft | 3 kts | 290° |
| 2026-05-05 09:38 | 48.35732 | 11.77735 | 1461 ft | 3 kts | 307° |
| 2026-05-05 09:38 | 48.35719 | 11.77754 | 1461 ft | 3 kts | 324° |
| 2026-05-05 09:38 | 48.35704 | 11.77768 | 1461 ft | 3 kts | 341° |
| 2026-05-05 09:39 | 48.35730 | 11.77757 | 1461 ft | 6 kts | 343° |
| 2026-05-05 09:39 | 48.35770 | 11.77726 | 1462 ft | 8 kts | 329° |
| 2026-05-05 09:39 | 48.35803 | 11.77709 | 1461 ft | 8 kts | 349° |
| 2026-05-05 09:39 | 48.35865 | 11.77694 | 1472 ft | 10 kts | 353° |
| 2026-05-05 09:40 | 48.35882 | 11.77691 | 1462 ft | 0 kts | 353° |
| 2026-05-05 09:45 | 48.35883 | 11.77691 | 1462 ft | 1 kts | 354° |
| 2026-05-05 09:46 | 48.35904 | 11.77688 | 1465 ft | 5 kts | 354° |
| 2026-05-05 09:46 | 48.35947 | 11.77682 | 1464 ft | 7 kts | 355° |
| 2026-05-05 09:46 | 48.36009 | 11.77674 | 1465 ft | 10 kts | 356° |
| 2026-05-05 09:46 | 48.36068 | 11.77731 | 1461 ft | 12 kts | 56° |
| 2026-05-05 09:47 | 48.36103 | 11.77928 | 1465 ft | 29 kts | 79° |
| 2026-05-05 09:47 | 48.36116 | 11.78169 | 1473 ft | 17 kts | 88° |
| 2026-05-05 09:47 | 48.36120 | 11.78275 | 1473 ft | 5 kts | 84° |
| 2026-05-05 09:47 | 48.36127 | 11.78355 | 1466 ft | 9 kts | 83° |
| 2026-05-05 09:48 | 48.36140 | 11.78514 | 1466 ft | 25 kts | 83° |
| 2026-05-05 09:48 | 48.36169 | 11.78876 | 1467 ft | 44 kts | 84° |
| 2026-05-05 09:48 | 48.36209 | 11.79445 | 1464 ft | 68 kts | 84° |
| 2026-05-05 09:48 | 48.36268 | 11.80142 | 1468 ft | 67 kts | 84° |
| 2026-05-05 09:49 | 48.36313 | 11.80834 | 1466 ft | 66 kts | 84° |
| 2026-05-05 09:49 | 48.36368 | 11.81492 | 1466 ft | 58 kts | 82° |
| 2026-05-05 09:49 | 48.36398 | 11.82025 | 1472 ft | 42 kts | 85° |
| 2026-05-05 09:49 | 48.36552 | 11.82125 | 1466 ft | 25 kts | 345° |
| 2026-05-05 09:50 | 48.36664 | 11.81976 | 1465 ft | 22 kts | 288° |
| 2026-05-05 09:50 | 48.36670 | 11.81904 | 1470 ft | 21 kts | 262° |
| 2026-05-05 09:50 | 48.36600 | 11.80852 | 1464 ft | 111 kts | 264° |
| 2026-05-05 09:51 | 48.36481 | 11.79383 | 1471 ft | 169 kts | 264° |
| 2026-05-05 09:51 | 48.36337 | 11.77453 | 1788 ft | 196 kts | 264° |
| 2026-05-05 09:51 | 48.36160 | 11.75528 | 2797 ft | 178 kts | 258° |
| 2026-05-05 09:51 | 48.35683 | 11.73809 | 3227 ft | 185 kts | 240° |
| 2026-05-05 09:52 | 48.34817 | 11.72298 | 3411 ft | 203 kts | 219° |
| 2026-05-05 09:52 | 48.33522 | 11.71639 | 3496 ft | 220 kts | 182° |
| 2026-05-05 09:52 | 48.32015 | 11.72222 | 3761 ft | 228 kts | 159° |
| 2026-05-05 09:52 | 48.30564 | 11.73219 | 4192 ft | 230 kts | 156° |
| 2026-05-05 09:53 | 48.29102 | 11.74218 | 4645 ft | 231 kts | 158° |
| 2026-05-05 09:53 | 48.27618 | 11.75157 | 5155 ft | 233 kts | 158° |
| 2026-05-05 09:53 | 48.26128 | 11.76135 | 5537 ft | 234 kts | 158° |
| 2026-05-05 09:53 | 48.24652 | 11.77121 | 5849 ft | 236 kts | 157° |
| 2026-05-05 09:54 | 48.23104 | 11.77927 | 6286 ft | 236 kts | 169° |
| 2026-05-05 09:54 | 48.21399 | 11.78015 | 6480 ft | 259 kts | 189° |
| 2026-05-05 09:54 | 48.19699 | 11.76836 | 6730 ft | 285 kts | 220° |
| 2026-05-05 09:54 | 48.18551 | 11.74292 | 7028 ft | 309 kts | 250° |
| 2026-05-05 09:55 | 48.18372 | 11.71022 | 7435 ft | 326 kts | 279° |
| 2026-05-05 09:55 | 48.19263 | 11.67881 | 8083 ft | 333 kts | 306° |
| 2026-05-05 09:55 | 48.21012 | 11.65607 | 8788 ft | 339 kts | 332° |
| 2026-05-05 09:55 | 48.23282 | 11.64663 | 9508 ft | 343 kts | 357° |
| 2026-05-05 09:56 | 48.25636 | 11.65254 | 10201 ft | 348 kts | 22° |
| 2026-05-05 09:56 | 48.27710 | 11.67146 | 10834 ft | 352 kts | 35° |
| 2026-05-05 09:56 | 48.29958 | 11.68632 | 11409 ft | 358 kts | 12° |
| 2026-05-05 09:56 | 48.31609 | 11.68837 | 11817 ft | 360 kts | 356° |
| 2026-05-05 09:57 | 48.34031 | 11.67936 | 12470 ft | 362 kts | 334° |
| 2026-05-05 09:57 | 48.36067 | 11.65729 | 13090 ft | 362 kts | 311° |
| 2026-05-05 09:57 | 48.37533 | 11.62663 | 13774 ft | 362 kts | 300° |
| 2026-05-05 09:57 | 48.38910 | 11.59462 | 14362 ft | 367 kts | 303° |
| 2026-05-05 09:58 | 48.41150 | 11.55600 | 15113 ft | 374 kts | 315° |
| 2026-05-05 09:58 | 48.42488 | 11.53911 | 15497 ft | 378 kts | 321° |
| 2026-05-05 09:58 | 48.44688 | 11.51702 | 16112 ft | 383 kts | 328° |
| 2026-05-05 09:58 | 48.47039 | 11.49777 | 16718 ft | 387 kts | 332° |
| 2026-05-05 09:59 | 48.49482 | 11.47985 | 17315 ft | 390 kts | 333° |
| 2026-05-05 09:59 | 48.51954 | 11.46249 | 17898 ft | 394 kts | 334° |
| 2026-05-05 09:59 | 48.53611 | 11.45089 | 18270 ft | 397 kts | 334° |